Time;durP1;ratioP1;P1;durP2;ratioP2;P2;SDS_P1;SDS_P2;PMS_P1;PMS_P2;Temp;Humidity;BMP_temperature;BMP_pressure;BME280_temperature;BME280_humidity;BME280_pressure;Samples;Min_cycle;Max_cycle;Signal;HPM_P1;HPM_P2
2021/11/02 00:01:08;;;;;;;69.03;40.43;;;;;;;5.58;69.61;94644.38;5014799;28;20451;-65
2021/11/02 00:03:37;;;;;;;73.17;40.30;;;;;;;5.61;70.55;94641.31;5010165;28;20850;-65
2021/11/02 00:06:05;;;;;;;63.57;40.03;;;;;;;5.66;69.89;94636.19;5017202;28;20919;-65
2021/11/02 00:08:32;;;;;;;67.72;38.35;;;;;;;5.73;69.19;94608.28;5018009;28;20444;-65
2021/11/02 00:10:59;;;;;;;59.67;37.13;;;;;;;5.99;68.62;94615.53;5017407;28;20196;-65
2021/11/02 00:13:32;;;;;;;65.80;37.67;;;;;;;5.69;69.30;94607.16;5017860;28;20613;-65
2021/11/02 00:16:02;;;;;;;63.97;39.80;;;;;;;5.90;68.50;94619.53;5029199;28;20478;-66
2021/11/02 00:18:30;;;;;;;63.23;38.90;;;;;;;6.08;67.74;94622.72;5021442;28;20864;-64
2021/11/02 00:21:01;;;;;;;60.53;38.03;;;;;;;6.10;67.54;94625.09;5015053;28;20483;-67
2021/11/02 00:23:35;;;;;;;61.83;38.50;;;;;;;6.07;67.44;94628.16;5006329;28;20471;-67
2021/11/02 00:26:08;;;;;;;57.25;36.00;;;;;;;5.92;67.77;94617.50;5012624;28;20498;-67
2021/11/02 00:28:37;;;;;;;66.17;37.57;;;;;;;6.01;67.89;94634.28;5017160;28;20285;-68
2021/11/02 00:31:05;;;;;;;60.53;37.00;;;;;;;5.95;67.91;94624.81;5019838;28;20447;-65
2021/11/02 00:33:32;;;;;;;58.75;35.28;;;;;;;6.01;67.77;94629.09;5019834;28;20517;-66
2021/11/02 00:35:59;;;;;;;66.93;37.30;;;;;;;6.20;67.57;94630.47;5008176;28;20228;-66
2021/11/02 00:38:26;;;;;;;57.30;37.20;;;;;;;5.73;69.45;94623.88;5023019;28;20539;-65
2021/11/02 00:40:53;;;;;;;59.17;36.70;;;;;;;5.57;70.57;94624.59;5018770;28;20463;-67
2021/11/02 00:43:23;;;;;;;62.73;36.67;;;;;;;5.62;70.32;94619.50;5027495;28;20458;-67
2021/11/02 00:45:50;;;;;;;60.60;36.50;;;;;;;5.84;69.03;94610.84;5028524;28;20957;-66
2021/11/02 00:48:24;;;;;;;57.23;35.70;;;;;;;5.86;67.84;94597.63;5028386;28;20950;-65
2021/11/02 00:50:52;;;;;;;59.13;35.13;;;;;;;5.72;68.16;94596.28;5022437;28;20440;-66
2021/11/02 00:53:20;;;;;;;60.20;35.10;;;;;;;5.83;68.06;94590.28;5021181;28;20679;-65
2021/11/02 00:55:47;;;;;;;55.80;35.60;;;;;;;5.81;68.30;94594.91;5008944;28;20464;-65
2021/11/02 00:58:16;;;;;;;56.83;34.17;;;;;;;5.70;68.48;94593.13;5004131;28;20447;-65
2021/11/02 01:00:44;;;;;;;55.93;34.53;;;;;;;5.81;68.14;94597.50;5021209;28;20454;-68
2021/11/02 01:03:11;;;;;;;57.20;36.13;;;;;;;5.82;68.38;94591.28;5017408;28;20796;-66
2021/11/02 01:05:38;;;;;;;60.23;34.33;;;;;;;5.70;68.60;94593.13;5015810;28;21093;-67
2021/11/02 01:08:06;;;;;;;57.07;33.93;;;;;;;5.94;68.55;94607.66;5018352;28;21009;-65
2021/11/02 01:10:33;;;;;;;57.15;36.05;;;;;;;5.99;68.36;94592.13;5029889;28;20444;-65
2021/11/02 01:13:02;;;;;;;62.33;36.33;;;;;;;6.21;68.08;94595.63;5019782;28;20663;-65
2021/11/02 01:15:30;;;;;;;61.97;35.80;;;;;;;6.37;67.71;94601.88;5015659;28;20463;-66
2021/11/02 01:17:58;;;;;;;55.60;35.13;;;;;;;6.40;68.16;94609.22;5017783;28;21382;-66
2021/11/02 01:20:27;;;;;;;59.70;35.13;;;;;;;6.48;67.30;94612.19;5017939;28;21192;-66
2021/11/02 01:22:55;;;;;;;56.13;35.50;;;;;;;6.35;67.97;94603.94;5007152;28;20448;-67
2021/11/02 01:25:24;;;;;;;59.33;37.27;;;;;;;5.40;71.26;94603.72;5030846;28;20479;-66
2021/11/02 01:27:52;;;;;;;55.30;35.00;;;;;;;5.74;70.67;94607.25;5029777;28;20455;-70
2021/11/02 01:30:24;;;;;;;57.23;35.20;;;;;;;5.72;69.80;94606.69;5009096;28;20539;-67
2021/11/02 01:32:51;;;;;;;56.25;33.85;;;;;;;5.68;69.27;94600.38;5013878;28;20439;-68
2021/11/02 01:35:18;;;;;;;57.37;33.73;;;;;;;5.47;69.49;94582.84;5019441;28;20193;-66
2021/11/02 01:37:54;;;;;;;58.70;33.73;;;;;;;5.46;69.83;94595.03;5023063;28;20541;-65
2021/11/02 01:40:22;;;;;;;55.05;33.33;;;;;;;5.14;70.82;94584.28;5032530;28;20591;-66
2021/11/02 01:42:50;;;;;;;59.80;33.17;;;;;;;5.47;69.74;94582.84;5021326;28;20198;-67
2021/11/02 01:45:26;;;;;;;54.33;31.40;;;;;;;5.33;70.39;94586.72;5013785;28;20232;-66
2021/11/02 01:47:59;;;;;;;50.78;31.25;;;;;;;5.52;70.34;94585.53;5018813;28;20232;-66
2021/11/02 01:50:38;;;;;;;54.88;31.58;;;;;;;5.65;69.86;94572.25;5015334;28;20205;-68
2021/11/02 01:53:05;;;;;;;51.55;31.38;;;;;;;5.88;68.93;94569.56;5013069;28;20205;-68
2021/11/02 01:55:32;;;;;;;54.80;32.97;;;;;;;5.71;69.50;94569.50;5030594;28;20232;-66
2021/11/02 01:57:59;;;;;;;53.00;30.80;;;;;;;5.85;69.12;94564.84;5018024;28;20851;-66
2021/11/02 02:00:30;;;;;;;52.47;32.05;;;;;;;6.06;68.41;94558.97;5018260;28;20209;-66
2021/11/02 02:03:25;;;;;;;54.72;32.97;;;;;;;6.14;68.82;94558.59;5018399;28;20211;-66
2021/11/02 02:06:08;;;;;;;55.88;33.45;;;;;;;6.10;69.19;94549.66;5016464;28;20281;-64
2021/11/02 02:08:50;;;;;;;57.65;33.13;;;;;;;6.30;68.35;94547.38;5015102;28;20288;-63
2021/11/02 02:12:03;;;;;;;52.92;31.88;;;;;;;5.92;69.29;94545.47;5018558;28;20248;-64
2021/11/02 02:14:47;;;;;;;51.28;31.65;;;;;;;6.04;69.18;94553.19;5017541;28;20189;-66
2021/11/02 02:17:21;;;;;;;51.80;31.50;;;;;;;5.59;70.55;94547.19;5031750;28;20212;-65
2021/11/02 02:20:11;;;;;;;51.28;30.55;;;;;;;5.82;69.60;94544.50;5026809;28;20214;-65
2021/11/02 02:23:07;;;;;;;53.13;31.23;;;;;;;5.83;69.40;94531.28;5028626;28;20207;-65
2021/11/02 02:25:35;;;;;;;55.95;31.00;;;;;;;5.88;69.63;94518.38;5020138;28;20223;-64
2021/11/02 02:28:18;;;;;;;51.22;30.45;;;;;;;6.06;68.84;94514.75;5028088;28;20711;-65
2021/11/02 02:30:55;;;;;;;52.07;30.63;;;;;;;6.12;68.50;94519.00;5027638;28;20201;-64
2021/11/02 02:33:26;;;;;;;55.17;33.37;;;;;;;6.23;68.74;94515.53;5030006;28;20494;-65
2021/11/02 02:35:55;;;;;;;54.30;31.93;;;;;;;6.28;68.81;94507.81;5030406;28;20440;-66
2021/11/02 02:38:26;;;;;;;51.13;31.23;;;;;;;5.91;70.36;94501.53;5026325;28;20452;-67
2021/11/02 02:40:58;;;;;;;52.45;31.50;;;;;;;6.20;69.47;94486.63;5019912;28;20605;-67
2021/11/02 02:43:30;;;;;;;51.45;31.10;;;;;;;6.18;69.46;94480.84;5024947;28;20202;-66
2021/11/02 02:46:00;;;;;;;52.33;30.97;;;;;;;6.22;69.81;94482.75;5029994;28;20299;-64
2021/11/02 02:48:29;;;;;;;49.50;30.77;;;;;;;6.34;69.24;94485.25;5014669;28;20452;-66
2021/11/02 02:50:57;;;;;;;52.20;31.50;;;;;;;6.46;69.15;94491.94;5030101;28;20201;-67
2021/11/02 02:53:25;;;;;;;52.80;32.87;;;;;;;6.52;69.10;94472.75;5024071;28;21005;-67
2021/11/02 02:55:58;;;;;;;54.20;33.30;;;;;;;6.82;68.95;94488.00;5016493;28;20436;-66
2021/11/02 02:58:35;;;;;;;61.40;35.87;;;;;;;6.64;70.25;94496.84;5023832;28;20945;-66
2021/11/02 03:01:12;;;;;;;57.57;33.50;;;;;;;6.70;70.00;94500.31;5016668;28;20470;-66
2021/11/02 03:03:49;;;;;;;55.90;34.57;;;;;;;6.84;69.72;94501.56;5017816;28;20525;-66
2021/11/02 03:06:21;;;;;;;60.73;34.33;;;;;;;6.74;69.87;94512.63;5019442;28;20464;-66
2021/11/02 03:08:51;;;;;;;54.90;33.50;;;;;;;6.90;69.05;94501.38;5014624;28;20450;-66
2021/11/02 03:11:24;;;;;;;55.63;35.00;;;;;;;6.94;69.37;94512.88;5016292;28;20448;-65
2021/11/02 03:13:55;;;;;;;57.90;36.20;;;;;;;6.88;69.95;94493.00;5005814;28;21197;-66
2021/11/02 04:43:58;;;;;;;59.20;34.73;;;;;;;7.68;70.63;94398.47;5015597;28;20455;-69
2021/11/02 05:56:23;;;;;;;73.23;44.33;;;;;;;8.13;72.04;94375.28;5032190;28;20461;-67
2021/11/02 06:29:53;;;;;;;80.63;48.30;;;;;;;8.59;73.31;94369.28;5031516;28;20455;-62
2021/11/02 06:32:28;;;;;;;86.37;48.57;;;;;;;8.67;72.79;94358.34;5021143;28;20958;-62
2021/11/02 06:40:17;;;;;;;90.80;53.13;;;;;;;8.95;71.41;94370.97;5031580;28;20835;-63
2021/11/02 07:18:48;;;;;;;79.77;47.97;;;;;;;9.41;72.84;94358.75;5020950;28;21013;-62
2021/11/02 08:47:17;;;;;;;53.90;34.27;;;;;;;9.99;75.75;94352.97;5015461;28;20993;-63
2021/11/02 08:49:46;;;;;;;53.27;33.07;;;;;;;10.00;75.55;94359.78;5030709;28;20816;-63
2021/11/02 08:52:14;;;;;;;58.37;36.27;;;;;;;9.91;76.72;94360.56;5010978;28;20445;-63
2021/11/02 08:54:43;;;;;;;55.13;35.03;;;;;;;10.07;75.50;94370.75;5021606;28;20506;-62
2021/11/02 08:57:10;;;;;;;56.70;35.63;;;;;;;9.94;77.10;94371.31;5015183;28;20451;-62
2021/11/02 08:59:38;;;;;;;57.23;36.80;;;;;;;9.77;78.89;94370.00;5029909;28;20510;-62
2021/11/02 09:02:11;;;;;;;62.63;37.63;;;;;;;9.86;78.42;94368.44;5029060;28;20451;-63
2021/11/02 09:04:46;;;;;;;54.67;34.73;;;;;;;10.05;77.27;94377.31;5030304;28;20456;-62
2021/11/02 09:07:20;;;;;;;51.70;33.60;;;;;;;10.16;76.21;94373.66;5026300;28;20490;-62
2021/11/02 09:09:50;;;;;;;53.70;34.40;;;;;;;10.10;76.12;94379.94;5010067;28;20443;-64
2021/11/02 09:12:19;;;;;;;51.57;34.93;;;;;;;10.10;77.32;94385.19;5025779;28;20455;-63
2021/11/02 09:14:47;;;;;;;52.27;32.70;;;;;;;9.98;76.53;94393.28;5030243;28;20452;-62
2021/11/02 09:17:14;;;;;;;49.67;32.50;;;;;;;9.97;74.71;94380.44;5029167;28;20451;-61
2021/11/02 09:19:42;;;;;;;49.20;31.47;;;;;;;10.01;74.57;94391.97;5030051;28;20452;-62
2021/11/02 09:22:12;;;;;;;52.60;31.87;;;;;;;9.89;75.40;94394.84;5029310;28;20432;-62
2021/11/02 09:24:42;;;;;;;55.83;34.30;;;;;;;9.83;77.54;94395.13;5015729;28;20907;-62
2021/11/02 09:27:12;;;;;;;59.23;35.90;;;;;;;9.74;77.66;94389.66;5020344;28;20487;-62
2021/11/02 09:29:39;;;;;;;58.53;35.50;;;;;;;9.80;78.14;94380.72;5025700;28;20456;-63
2021/11/02 09:32:10;;;;;;;59.07;35.90;;;;;;;9.88;77.59;94376.81;5028975;28;20542;-62
2021/11/02 09:34:37;;;;;;;63.07;35.70;;;;;;;9.86;79.12;94373.66;5028757;28;20447;-63
2021/11/02 09:37:17;;;;;;;55.73;35.53;;;;;;;10.03;78.60;94380.19;5016305;28;20444;-61
2021/11/02 09:39:50;;;;;;;59.23;37.50;;;;;;;10.16;77.76;94392.00;5031087;28;20447;-61
2021/11/02 09:42:36;;;;;;;64.10;40.40;;;;;;;10.16;77.29;94373.66;5020902;28;20439;-62
2021/11/02 09:45:41;;;;;;;59.40;38.03;;;;;;;10.00;78.49;94364.22;5033231;28;20475;-62
2021/11/02 09:48:13;;;;;;;56.57;35.83;;;;;;;9.91;79.85;94355.31;5032215;28;20443;-62
2021/11/02 09:51:00;;;;;;;57.70;36.60;;;;;;;9.91;78.99;94344.88;5020275;28;20888;-61
2021/11/02 09:53:38;;;;;;;53.33;34.03;;;;;;;9.92;79.42;94342.00;5031015;28;20479;-66
2021/11/02 09:56:37;;;;;;;58.43;36.37;;;;;;;9.59;80.77;94320.84;5013411;28;20961;-62
2021/11/02 09:59:23;;;;;;;54.37;34.87;;;;;;;9.69;81.59;94319.00;5027664;28;20474;-62
2021/11/02 10:02:20;;;;;;;56.03;33.53;;;;;;;9.68;80.81;94319.25;5012790;28;20440;-62
2021/11/02 10:05:15;;;;;;;51.57;32.17;;;;;;;9.74;81.16;94302.53;5031776;28;20471;-62
2021/11/02 10:08:07;;;;;;;48.13;29.50;;;;;;;9.85;81.27;94293.59;5018792;28;20635;-61
2021/11/02 10:10:58;;;;;;;51.73;29.33;;;;;;;10.03;79.66;94287.81;5032824;28;20428;-62
2021/11/02 10:13:27;;;;;;;46.40;29.03;;;;;;;9.84;80.77;94284.16;5032370;28;20444;-63
2021/11/02 10:16:18;;;;;;;47.33;30.07;;;;;;;9.92;80.74;94284.44;5032310;28;20929;-63
2021/11/02 10:19:15;;;;;;;43.63;27.20;;;;;;;9.84;82.09;94281.56;5032611;28;20451;-61
2021/11/02 10:22:06;;;;;;;43.20;26.40;;;;;;;9.98;81.13;94277.34;5025187;28;20904;-62
2021/11/02 10:24:52;;;;;;;36.63;23.63;;;;;;;9.85;81.86;94299.59;5032492;28;20431;-62
2021/11/02 10:28:10;;;;;;;37.27;23.17;;;;;;;9.85;82.44;94283.13;5031827;28;20858;-62
2021/11/02 10:30:43;;;;;;;31.07;21.53;;;;;;;10.03;82.19;94272.09;5032464;28;20447;-63
2021/11/02 10:33:20;;;;;;;34.70;22.90;;;;;;;10.03;82.32;94280.75;5031574;28;20480;-62
2021/11/02 10:36:09;;;;;;;33.73;21.50;;;;;;;10.20;81.40;94285.66;5030704;28;21051;-62
2021/11/02 10:38:45;;;;;;;35.40;20.67;;;;;;;10.21;80.57;94295.09;5030474;28;20444;-61
2021/11/02 10:41:19;;;;;;;33.50;19.80;;;;;;;9.96;81.50;94272.38;5030556;28;20486;-61
2021/11/02 10:44:13;;;;;;;33.30;20.80;;;;;;;10.11;81.96;94266.31;5018516;28;20870;-62
2021/11/02 10:46:58;;;;;;;32.97;22.17;;;;;;;10.20;81.46;94270.75;5030952;28;20486;-61
2021/11/02 10:49:37;;;;;;;35.53;23.40;;;;;;;10.17;81.97;94252.19;5032097;28;20494;-63
2021/11/02 10:52:07;;;;;;;36.47;23.67;;;;;;;10.21;83.07;94255.84;5030696;28;20744;-63
2021/11/02 10:54:56;;;;;;;34.60;22.03;;;;;;;10.08;83.12;94245.91;5032081;28;20436;-63
2021/11/02 10:57:36;;;;;;;41.33;24.30;;;;;;;10.24;82.42;94250.06;5031141;28;20436;-61
2021/11/02 11:00:06;;;;;;;39.00;25.50;;;;;;;10.33;83.27;94248.44;5031915;28;20447;-62
2021/11/02 11:02:34;;;;;;;46.03;27.90;;;;;;;10.48;82.56;94251.00;5017511;28;20508;-61
2021/11/02 11:05:04;;;;;;;42.83;27.43;;;;;;;10.64;82.63;94252.47;5031841;28;20455;-62
2021/11/02 11:07:43;;;;;;;40.70;26.20;;;;;;;10.82;81.51;94262.31;5016461;28;21112;-60
2021/11/02 11:10:12;;;;;;;41.63;27.27;;;;;;;10.92;81.44;94275.38;5032363;28;20526;-62
2021/11/02 11:12:48;;;;;;;37.87;25.23;;;;;;;11.23;80.20;94258.38;5031386;28;20462;-62
2021/11/02 11:15:15;;;;;;;35.70;22.73;;;;;;;11.47;79.25;94257.66;5031775;28;20490;-63
2021/11/02 11:17:50;;;;;;;40.20;25.43;;;;;;;11.11;81.92;94244.81;5030987;28;20428;-63
2021/11/02 11:20:18;;;;;;;35.53;23.40;;;;;;;11.22;81.33;94248.16;5022816;28;20555;-62
2021/11/02 11:22:48;;;;;;;32.23;21.17;;;;;;;11.20;80.85;94242.41;5024744;28;20551;-61
2021/11/02 11:25:30;;;;;;;25.60;18.40;;;;;;;11.17;80.91;94254.22;5011217;28;20544;-62
2021/11/02 11:27:58;;;;;;;28.30;18.63;;;;;;;11.60;78.57;94252.56;5026405;28;20503;-62
2021/11/02 11:30:34;;;;;;;26.00;17.47;;;;;;;11.74;78.01;94247.44;5031461;28;20440;-62
2021/11/02 11:33:12;;;;;;;27.03;19.07;;;;;;;11.73;79.31;94243.28;5028737;28;20447;-62
2021/11/02 11:35:43;;;;;;;18.40;13.23;;;;;;;11.75;78.64;94244.53;5020145;28;20452;-62
2021/11/02 11:38:12;;;;;;;14.67;11.17;;;;;;;11.42;79.50;94244.59;5016631;28;20433;-63
2021/11/02 11:40:42;;;;;;;14.93;11.50;;;;;;;11.92;78.26;94238.88;5031416;28;20440;-63
2021/11/02 11:43:11;;;;;;;14.17;11.00;;;;;;;11.82;78.57;94249.47;5029528;28;20471;-62
2021/11/02 11:45:41;;;;;;;15.60;11.20;;;;;;;12.01;77.79;94239.81;5018291;28;20440;-63
2021/11/02 11:48:15;;;;;;;16.90;11.23;;;;;;;12.33;77.40;94244.44;5029569;28;20902;-63
2021/11/02 11:50:49;;;;;;;13.93;10.70;;;;;;;12.84;76.23;94238.25;5010977;28;20502;-63
2021/11/02 11:53:24;;;;;;;12.87;9.50;;;;;;;12.92;75.85;94239.44;5024323;28;20444;-63
2021/11/02 11:56:02;;;;;;;11.90;9.73;;;;;;;13.87;72.54;94243.16;5030734;28;20444;-62
2021/11/02 11:58:30;;;;;;;10.30;8.07;;;;;;;14.39;69.88;94238.53;5016391;28;20444;-62
2021/11/02 12:01:18;;;;;;;14.27;8.20;;;;;;;14.32;69.77;94225.75;5030625;28;20447;-62
2021/11/02 12:03:47;;;;;;;10.20;8.07;;;;;;;14.43;68.90;94227.13;5013423;28;20432;-62
2021/11/02 12:06:18;;;;;;;11.83;8.13;;;;;;;14.67;66.97;94214.47;5010344;28;20845;-63
2021/11/02 12:08:59;;;;;;;9.97;7.50;;;;;;;14.46;65.77;94226.53;5025686;28;20463;-63
2021/11/02 12:11:32;;;;;;;10.17;7.10;;;;;;;13.75;68.98;94224.44;5030348;28;20479;-62
2021/11/02 12:14:08;;;;;;;10.43;7.10;;;;;;;13.44;69.48;94230.50;5016345;28;20483;-62
2021/11/02 12:16:35;;;;;;;9.07;6.90;;;;;;;13.38;70.54;94221.13;5016955;28;20482;-62
2021/11/02 12:19:16;;;;;;;9.00;7.17;;;;;;;13.04;71.78;94224.84;5030630;28;20444;-62
2021/11/02 12:22:01;;;;;;;10.33;7.23;;;;;;;12.96;71.83;94217.56;5016024;28;20909;-62
2021/11/02 12:24:31;;;;;;;8.33;6.77;;;;;;;12.51;72.63;94204.28;5030256;28;20483;-63
2021/11/02 12:27:20;;;;;;;8.87;6.20;;;;;;;12.62;71.76;94217.00;5030206;28;20480;-62
2021/11/02 12:29:48;;;;;;;7.60;6.10;;;;;;;12.37;73.89;94214.69;5027275;28;22587;-64
2021/11/02 12:32:21;;;;;;;7.47;5.90;;;;;;;12.19;73.12;94199.69;5020580;28;20443;-62
2021/11/02 12:34:52;;;;;;;6.50;5.47;;;;;;;12.28;73.28;94213.00;5031575;28;20934;-63
2021/11/02 12:37:21;;;;;;;6.10;5.47;;;;;;;12.15;72.34;94217.84;5030982;28;20535;-63
2021/11/02 12:39:49;;;;;;;7.33;5.90;;;;;;;12.10;72.46;94209.25;5029800;28;20439;-63
2021/11/02 12:42:23;;;;;;;8.83;5.80;;;;;;;12.34;71.61;94215.25;5029745;28;20446;-63
2021/11/02 12:44:51;;;;;;;7.77;5.90;;;;;;;12.52;71.37;94206.63;5030164;28;20542;-63
2021/11/02 12:47:23;;;;;;;7.03;5.63;;;;;;;12.34;71.63;94209.22;5029549;28;20472;-63
2021/11/02 12:49:55;;;;;;;7.03;5.87;;;;;;;12.35;71.44;94210.78;5016724;28;20441;-61
2021/11/02 12:52:27;;;;;;;6.77;5.63;;;;;;;12.50;70.65;94208.75;5016338;28;20440;-62
2021/11/02 12:55:10;;;;;;;7.83;5.80;;;;;;;12.54;71.13;94215.00;5029882;28;20448;-63
2021/11/02 12:57:41;;;;;;;6.70;5.73;;;;;;;12.68;70.13;94215.84;5016741;28;20476;-64
2021/11/02 13:00:17;;;;;;;8.00;6.00;;;;;;;13.00;70.02;94223.81;5015963;28;20440;-63
2021/11/02 13:02:51;;;;;;;7.37;6.00;;;;;;;13.09;69.29;94222.13;5030183;28;20486;-63
2021/11/02 13:05:21;;;;;;;8.53;6.00;;;;;;;13.76;67.14;94194.41;5029882;28;20535;-63
2021/11/02 13:08:03;;;;;;;8.67;6.37;;;;;;;14.10;66.40;94231.66;5029367;28;20491;-61
2021/11/02 13:10:32;;;;;;;9.17;6.97;;;;;;;14.20;66.10;94223.56;5029631;28;20546;-62
2021/11/02 13:13:09;;;;;;;8.10;6.60;;;;;;;14.10;65.69;94215.09;5029525;28;20452;-63
2021/11/02 13:15:50;;;;;;;8.10;5.93;;;;;;;13.78;66.10;94218.59;5033763;28;20449;-61
2021/11/02 13:18:37;;;;;;;8.00;6.47;;;;;;;13.48;65.89;94239.41;5014180;28;20854;-64
2021/11/02 13:21:18;;;;;;;7.83;6.30;;;;;;;13.37;67.14;94238.00;5030192;28;20953;-63
2021/11/02 13:23:51;;;;;;;7.80;5.40;;;;;;;13.36;66.03;94229.31;5034140;28;20949;-62
2021/11/02 13:26:20;;;;;;;7.47;6.43;;;;;;;13.40;66.43;94232.94;5033039;28;20930;-64
2021/11/02 13:28:49;;;;;;;7.50;6.40;;;;;;;13.50;66.21;94224.09;5033574;28;20447;-62
2021/11/02 13:31:33;;;;;;;7.93;6.93;;;;;;;13.06;66.86;94221.91;5032806;28;20439;-62
2021/11/02 13:34:05;;;;;;;8.63;6.70;;;;;;;13.23;67.69;94217.69;5033589;28;20436;-62
2021/11/02 13:36:33;;;;;;;13.40;6.40;;;;;;;13.16;66.65;94222.53;5032740;28;20448;-62
2021/11/02 13:39:06;;;;;;;7.80;6.30;;;;;;;13.82;64.47;94222.19;5033614;28;20447;-62
2021/11/02 13:41:58;;;;;;;9.63;7.03;;;;;;;15.17;61.07;94215.19;5032043;28;20509;-63
2021/11/02 13:44:27;;;;;;;6.67;5.87;;;;;;;16.09;58.17;94223.19;5033441;28;20448;-62
2021/11/02 13:47:01;;;;;;;7.40;6.20;;;;;;;15.98;57.72;94216.63;5032508;28;20479;-63
2021/11/02 13:49:28;;;;;;;6.73;5.70;;;;;;;17.05;55.73;94219.38;5022842;28;20476;-63
2021/11/02 13:51:55;;;;;;;6.63;5.47;;;;;;;17.49;53.96;94212.97;5029206;28;20524;-62
2021/11/02 13:54:22;;;;;;;6.97;5.50;;;;;;;17.86;53.72;94222.09;5033498;28;20464;-62
2021/11/02 13:56:49;;;;;;;6.37;5.77;;;;;;;16.90;54.05;94226.97;5018574;28;20502;-63
2021/11/02 13:59:16;;;;;;;7.27;6.17;;;;;;;16.55;55.10;94231.44;5026309;28;20437;-62
2021/11/02 14:01:55;;;;;;;6.50;5.90;;;;;;;15.91;56.41;94232.88;5025898;28;20455;-61
2021/11/02 14:04:32;;;;;;;6.10;5.43;;;;;;;14.40;59.25;94240.09;5020382;28;20440;-63
2021/11/02 14:07:09;;;;;;;7.07;6.20;;;;;;;14.01;60.38;94237.94;5031564;28;20540;-63
2021/11/02 14:09:40;;;;;;;8.93;6.50;;;;;;;13.84;61.83;94237.72;5032726;28;20964;-63
2021/11/02 14:12:39;;;;;;;8.70;6.20;;;;;;;13.62;62.32;94253.34;5017929;28;20444;-64
2021/11/02 14:15:12;;;;;;;7.80;6.87;;;;;;;13.52;62.54;94243.03;5028877;28;21000;-61
2021/11/02 14:17:41;;;;;;;7.27;5.97;;;;;;;13.62;62.85;94245.47;5032107;28;20455;-63
2021/11/02 14:20:29;;;;;;;9.20;7.80;;;;;;;13.63;63.26;94236.50;5032637;28;20440;-62
2021/11/02 14:22:56;;;;;;;11.93;8.00;;;;;;;13.55;63.57;94234.53;5029589;28;20451;-63
2021/11/02 14:25:31;;;;;;;11.00;9.13;;;;;;;13.32;64.04;94235.47;5011310;28;20433;-62
2021/11/02 14:27:59;;;;;;;10.70;9.13;;;;;;;13.06;65.01;94246.34;5027741;28;20476;-61
2021/11/02 14:30:31;;;;;;;12.70;8.93;;;;;;;12.96;65.53;94254.38;5033469;28;20443;-62
2021/11/02 14:33:16;;;;;;;11.00;8.73;;;;;;;13.14;65.02;94237.81;5031986;28;20519;-62
2021/11/02 14:36:01;;;;;;;8.90;8.00;;;;;;;13.17;64.53;94233.84;5022370;28;20433;-62
2021/11/02 14:38:29;;;;;;;10.67;9.37;;;;;;;13.00;65.48;94229.06;5025615;28;20437;-64
2021/11/02 14:41:30;;;;;;;14.17;11.27;;;;;;;12.88;65.98;94236.59;5012147;28;20448;-63
2021/11/02 14:44:20;;;;;;;11.40;8.90;;;;;;;12.54;67.09;94243.13;5019683;28;20440;-62
2021/11/02 14:46:48;;;;;;;13.93;10.90;;;;;;;12.54;66.80;94262.31;5029677;28;20546;-64
2021/11/02 14:49:27;;;;;;;13.87;10.77;;;;;;;12.45;67.95;94257.94;5032224;28;20436;-63
2021/11/02 14:52:05;;;;;;;13.80;10.13;;;;;;;12.44;67.68;94249.31;5031178;28;20809;-62
2021/11/02 14:54:38;;;;;;;13.43;11.00;;;;;;;12.39;68.22;94248.59;5031777;28;20446;-63
2021/11/02 14:57:18;;;;;;;12.93;10.23;;;;;;;12.32;67.53;94256.78;5031104;28;20444;-63
2021/11/02 15:00:00;;;;;;;15.40;12.17;;;;;;;12.17;67.66;94249.13;5032245;28;20545;-62
2021/11/02 15:02:35;;;;;;;14.47;11.63;;;;;;;12.03;68.32;94241.13;5031247;28;20483;-62
2021/11/02 15:05:07;;;;;;;15.20;11.57;;;;;;;12.06;68.41;94255.53;5031950;28;20443;-63
2021/11/02 15:07:36;;;;;;;16.10;11.53;;;;;;;12.13;68.48;94262.00;5016742;28;20583;-62
2021/11/02 15:10:05;;;;;;;16.67;12.03;;;;;;;12.06;69.46;94273.91;5019837;28;20912;-64
2021/11/02 15:12:32;;;;;;;16.67;12.67;;;;;;;12.01;69.24;94276.56;5029142;28;20475;-62
2021/11/02 15:15:02;;;;;;;15.53;12.63;;;;;;;11.69;70.67;94271.91;5027898;28;20961;-63
2021/11/02 15:17:29;;;;;;;16.80;12.90;;;;;;;11.80;69.79;94267.34;5030769;28;20447;-62
2021/11/02 15:20:27;;;;;;;16.63;12.67;;;;;;;11.76;69.86;94271.59;5031796;28;20542;-61
2021/11/02 15:22:55;;;;;;;20.00;14.37;;;;;;;11.77;69.74;94267.91;5014783;28;20460;-64
2021/11/02 15:25:23;;;;;;;20.90;16.80;;;;;;;11.59;73.01;94265.94;5011576;28;21125;-62
2021/11/02 15:27:58;;;;;;;16.27;12.80;;;;;;;11.64;71.40;94265.91;5024847;28;20565;-63
2021/11/02 15:30:25;;;;;;;17.00;13.17;;;;;;;11.20;73.05;94272.03;5031290;28;20527;-63
2021/11/02 15:32:52;;;;;;;16.20;12.93;;;;;;;11.47;71.20;94273.41;5030001;28;20440;-63
2021/11/02 15:35:22;;;;;;;19.90;13.63;;;;;;;11.24;70.77;94246.81;5017666;28;20531;-66
2021/11/02 15:37:53;;;;;;;33.27;25.07;;;;;;;11.63;70.55;94274.81;5030399;28;20451;-65
2021/11/02 15:40:26;;;;;;;21.77;15.33;;;;;;;11.47;70.53;94273.41;5025071;28;20468;-63
2021/11/02 15:42:58;;;;;;;61.33;45.30;;;;;;;11.67;69.41;94263.53;5011013;28;20452;-64
2021/11/02 15:45:37;;;;;;;18.10;12.13;;;;;;;11.72;69.12;94271.34;5010549;28;20452;-64
2021/11/02 15:48:10;;;;;;;33.20;14.10;;;;;;;11.76;68.84;94276.84;5029183;28;20471;-60
2021/11/02 15:50:44;;;;;;;22.70;13.50;;;;;;;11.21;70.58;94273.59;5012071;28;20444;-66
2021/11/02 15:53:12;;;;;;;33.43;13.20;;;;;;;11.34;70.40;94272.19;5026707;28;20957;-63
2021/11/02 15:55:40;;;;;;;39.30;17.27;;;;;;;11.45;69.38;94276.28;5028947;28;20446;-65
2021/11/02 15:58:09;;;;;;;42.47;17.43;;;;;;;11.40;69.90;94267.69;5028257;28;20444;-63
2021/11/02 16:00:44;;;;;;;74.07;20.07;;;;;;;11.45;69.00;94278.91;5028763;28;20876;-63
2021/11/02 16:03:13;;;;;;;44.07;16.70;;;;;;;11.24;70.13;94275.66;5027763;28;20502;-62
2021/11/02 16:05:43;;;;;;;31.63;15.40;;;;;;;11.22;70.12;94277.78;5025580;28;20487;-63
2021/11/02 16:08:18;;;;;;;54.03;17.13;;;;;;;11.37;69.12;94283.97;5027560;28;20911;-63
2021/11/02 16:10:49;;;;;;;56.63;15.47;;;;;;;11.13;70.30;94284.66;5027002;28;20450;-62
2021/11/02 16:13:25;;;;;;;160.30;94.97;;;;;;;11.40;69.48;94293.91;5027154;28;20965;-64
2021/11/02 16:15:54;;;;;;;232.33;105.57;;;;;;;11.42;69.65;94297.84;5026824;28;20545;-65
2021/11/02 16:18:33;;;;;;;97.10;54.77;;;;;;;11.21;69.94;94302.44;5025062;28;20443;-62
2021/11/02 16:21:04;;;;;;;32.23;16.70;;;;;;;10.94;71.28;94296.84;5028143;28;20454;-63
2021/11/02 16:23:43;;;;;;;28.43;16.40;;;;;;;11.19;69.79;94304.56;5025512;28;20440;-62
2021/11/02 16:26:18;;;;;;;33.67;17.97;;;;;;;11.10;70.01;94319.28;5026349;28;20455;-64
2021/11/02 16:28:47;;;;;;;30.10;19.60;;;;;;;10.96;70.60;94304.44;5024223;28;20487;-64
2021/11/02 16:31:30;;;;;;;30.30;19.60;;;;;;;11.13;69.33;94321.38;5027623;28;20789;-62
2021/11/02 16:33:58;;;;;;;143.47;27.17;;;;;;;11.03;70.27;94331.94;5025053;28;20584;-63
2021/11/02 16:36:29;;;;;;;77.07;21.03;;;;;;;10.95;70.31;94329.06;5026037;28;20427;-63
2021/11/02 16:39:19;;;;;;;59.47;21.00;;;;;;;10.89;70.05;94325.69;4970118;28;20471;-63
2021/11/02 16:41:52;;;;;;;96.17;23.13;;;;;;;10.97;69.61;94330.38;4968314;28;20969;-63
2021/11/02 16:44:28;;;;;;;83.87;36.20;;;;;;;11.02;69.95;94346.06;5026273;28;20855;-63
2021/11/02 16:47:07;;;;;;;111.17;77.60;;;;;;;11.11;69.44;94339.22;5023307;28;20444;-61
2021/11/02 16:49:35;;;;;;;46.27;24.00;;;;;;;10.90;70.49;94342.22;5028546;28;20483;-61
2021/11/02 16:52:06;;;;;;;40.77;21.87;;;;;;;10.78;70.21;94342.56;5030641;28;20476;-63
2021/11/02 16:54:37;;;;;;;32.00;22.13;;;;;;;10.75;70.25;94345.69;5031310;28;20546;-62
2021/11/02 16:57:07;;;;;;;33.47;20.90;;;;;;;10.64;71.31;94344.16;5029091;28;20996;-62
2021/11/02 16:59:37;;;;;;;32.20;21.03;;;;;;;10.62;71.49;94346.28;5030375;28;20443;-62
2021/11/02 17:02:24;;;;;;;30.57;20.67;;;;;;;10.51;71.74;94355.22;5028285;28;20521;-63
2021/11/02 17:05:00;;;;;;;36.17;18.43;;;;;;;10.65;70.82;94351.00;5030523;28;20440;-64
2021/11/02 17:07:43;;;;;;;58.57;22.47;;;;;;;10.71;70.84;94364.84;5027803;28;20510;-63
2021/11/02 17:10:27;;;;;;;43.83;20.13;;;;;;;10.38;71.20;94361.03;5030327;28;20498;-62
2021/11/02 17:13:25;;;;;;;39.17;20.97;;;;;;;10.51;71.41;94364.94;5028096;28;20973;-62